< < Back
Terminal Aerodrome Forecast


Current Version              Previous Versions:   1  2  3  4  5  6  7  8  9  

Terminal Aerodrome Forecast

235
FTUS44 KMRX 201131
TAFTYS
TAF
KTYS 201131Z 2012/2112 24008KT P6SM SCT060 BKN250
     FM201500 24011KT P6SM SCT070
     FM210000 25003KT P6SM SCT250=

Latest METAR

163
SAUS80 KWBC 210400
MTRTYS
METAR KTYS 210353Z 21005KT 10SM CLR 02/M05 A3026 RMK AO2 SLP249
T00221050


USA.gov is the U.S. government's official web portal to all federal, state and local government web resources and services.